• Join FlightAware (Why Join?)
  • Login
  • US Flag 
08:51AM EDT


 

Airport Tracker/Info


-or-


 

Live Flight TrackerFlight Track Log ✈ N503LM ✈ 30-Jul-2013 ✈ KGTU - KCRP

Flight Track Log - Related Links

Times and Time Zones

All times are in EDT time to prevent confusion due to time zone crossing. See the N503LM flight status page for this flight to view local times or setup timezone preferences in your user account.

Time Position Orientation Groundspeed Altitude Reporting Facility
EDT Latitude Longitude Course Direction KTS MPH feet Rate Location/Type
04:54PM 30.4811 -97.6703 175° South 195 224 8,100  Level Houston Center
04:55PM 30.4236 -97.6647 175° South 208 239 9,600 1,560 Climbing Houston Center
04:56PM 30.3539 -97.6597 176° South 213 245 11,400 840 Climbing Houston Center
04:57PM 30.2864 -97.6561 177° South 235 270 11,500  Climbing Houston Center
04:58PM 30.2117 -97.6494 176° South 262 302 11,500  Level Houston Center
04:59PM 30.1336 -97.6458 178° South 273 314 11,500 720 Level Houston Center
05:00PM 30.0497 -97.6394 176° South 264 304 13,000 1,740 Climbing Houston Center
05:01PM 29.9939 -97.6364 177° South 208 239 15,200 1,740 Climbing Houston Center
05:02PM 29.9358 -97.6342 178° South 199 229 16,700 1,080 Climbing Houston Center
05:03PM 29.8781 -97.6303 177° South 207 238 17,500 360 Climbing Houston Center
05:04PM 29.8072 -97.6267 177° South 252 290 17,500  Level Houston Center
05:05PM 29.7347 -97.6197 175° South 271 312 17,500  Level Houston Center
05:06PM 29.6417 -97.6153 178° South 280 322 17,500  Level Houston Center
05:07PM 29.5639 -97.6150 180° South 279 321 17,500  Level Houston Center
05:08PM 29.4856 -97.6125 178° South 282 325 17,500  Level Houston Center
05:09PM 29.4075 -97.6122 180° South 281 323 17,500  Level Houston Center
05:10PM 29.3286 -97.6094 178° South 283 326 17,500  Level Houston Center
05:11PM 29.2347 -97.6078 179° South 283 326 17,500  Level Houston Center
05:13PM 29.1561 -97.6067 179° South 283 326 17,500  Level Houston Center
05:14PM 29.0789 -97.6047 179° South 280 322 17,500  Level Houston Center
05:15PM 29.0028 -97.6031 179° South 276 318 17,500  Level Houston Center
05:16PM 28.9278 -97.6014 179° South 270 311 17,500  Level Houston Center
05:17PM 28.8525 -97.5997 179° South 271 312 17,500 -540 Level Houston Center
05:18PM 28.7606 -97.5981 179° South 276 318 16,400 -1,320 Descending Houston Center
05:19PM 28.6789 -97.5972 179° South 289 333 14,800 -1,620 Descending Houston Center
05:20PM 28.5964 -97.5942 178° South 294 338 13,100 -1,800 Descending Houston Center
05:21PM 28.5136 -97.5933 179° South 291 335 11,400 -1,620 Descending Houston Center
05:22PM 28.4356 -97.5900 178° South 288 331 9,800 -1,620 Descending Houston Center
05:22PM 28.3744 -97.5911 181° South 279 321 8,500 -1,860 Descending Houston Center
05:24PM 28.2944 -97.5900 179° South 274 315 6,700 -1,680 Descending Houston Center
05:25PM 28.2081 -97.5878 179° South 258 297 4,800 -1,140 Descending Houston Center
05:26PM 28.1428 -97.5869 179° South 235 270 4,300 -480 Descending Houston Center
05:27PM 28.0731 -97.5847 178° South 224 258 3,800 -540 Descending Houston Center
05:28PM 28.0053 -97.5822 178° South 229 264 3,200 -840 Descending Houston Center
05:29PM 27.9422 -97.5814 179° South 234 269 2,100 -780 Descending Houston Center
05:30PM 27.8856 -97.5819 180° South 181 208 1,700 -420 Descending Houston Center
05:31PM 27.8453 -97.5803 178° South 149 171 1,400 -420 Descending Houston Center
05:32PM 27.8153 -97.5561 145° Southeast 122 140 1,000 -480 Descending Houston Center
05:33PM 27.7892 -97.5289 137° Southeast 129 148 500 -540 Descending Houston Center
05:35PM 27.7667 -97.5000 180° South  Level FlightAware Approximate